createdAt,value
2018-03-27T00:00:13.166Z,26.07
2018-03-27T00:02:40.433Z,33.27
2018-03-27T00:05:07.755Z,35.97
2018-03-27T00:07:35.109Z,36.60
2018-03-27T00:10:02.424Z,34.50
2018-03-27T00:12:29.671Z,29.27
2018-03-27T00:14:57.014Z,31.83
2018-03-27T00:17:24.290Z,27.23
2018-03-27T00:19:51.552Z,28.77
2018-03-27T00:22:18.837Z,35.60
2018-03-27T00:24:46.115Z,30.60
2018-03-27T00:27:13.156Z,30.70
2018-03-27T00:29:46.340Z,31.00
2018-03-27T00:32:19.540Z,32.20
2018-03-27T00:34:52.567Z,36.23
2018-03-27T00:37:25.908Z,30.27
2018-03-27T00:39:59.143Z,31.80
2018-03-27T00:42:31.144Z,31.77
2018-03-27T00:44:58.902Z,36.57
2018-03-27T00:47:26.182Z,36.23
2018-03-27T00:49:53.458Z,33.60
2018-03-27T00:52:20.719Z,33.67
2018-03-27T00:54:47.976Z,34.13
2018-03-27T00:57:15.238Z,35.60
2018-03-27T00:59:42.515Z,34.63
2018-03-27T01:02:09.792Z,34.17
2018-03-27T01:04:37.094Z,33.17
2018-03-27T01:07:04.347Z,35.43
2018-03-27T01:09:31.730Z,38.37
2018-03-27T01:11:59.080Z,38.60
2018-03-27T01:14:26.363Z,38.90
2018-03-27T01:16:53.638Z,35.97
2018-03-27T01:19:20.926Z,36.90
2018-03-27T01:21:48.189Z,34.10
2018-03-27T01:24:15.466Z,38.47
2018-03-27T01:26:42.724Z,35.13
2018-03-27T01:29:09.974Z,38.77
2018-03-27T01:31:37.244Z,36.40
2018-03-27T01:34:04.506Z,38.23
2018-03-27T01:36:31.790Z,39.33
2018-03-27T01:38:59.062Z,37.43
2018-03-27T01:41:26.320Z,37.93
2018-03-27T01:43:53.637Z,39.87
2018-03-27T01:46:20.930Z,39.50
2018-03-27T01:48:48.204Z,39.20
2018-03-27T01:51:15.454Z,40.23
2018-03-27T01:53:42.727Z,38.23
2018-03-27T01:56:09.999Z,41.03
2018-03-27T01:58:37.278Z,47.13
2018-03-27T02:01:04.547Z,42.00
2018-03-27T02:03:31.831Z,41.83
2018-03-27T02:05:59.094Z,44.63
2018-03-27T02:08:26.363Z,41.03
2018-03-27T02:10:53.714Z,44.73
2018-03-27T02:13:26.729Z,45.90
2018-03-27T02:15:59.653Z,45.00
2018-03-27T02:18:32.742Z,45.10
2018-03-27T02:21:05.834Z,49.57
2018-03-27T02:23:33.851Z,52.40
2018-03-27T02:26:01.152Z,52.10
2018-03-27T02:28:28.428Z,46.27
2018-03-27T02:30:55.701Z,47.47
2018-03-27T02:33:22.976Z,49.37
2018-03-27T02:35:50.239Z,47.60
2018-03-27T02:38:17.535Z,46.57
2018-03-27T02:40:44.822Z,51.87
2018-03-27T02:43:12.074Z,47.20
2018-03-27T02:45:39.364Z,47.43
2018-03-27T02:48:06.646Z,50.77
2018-03-27T02:50:33.950Z,48.77
2018-03-27T02:53:01.233Z,49.17
2018-03-27T02:55:28.527Z,47.90
2018-03-27T02:57:55.810Z,49.00
2018-03-27T03:00:23.106Z,50.33
2018-03-27T03:02:50.367Z,49.10
2018-03-27T03:05:17.738Z,51.40
2018-03-27T03:07:45.043Z,46.10
2018-03-27T03:10:12.323Z,46.97
2018-03-27T03:12:39.568Z,47.40
2018-03-27T03:15:06.830Z,49.87
2018-03-27T03:17:34.093Z,46.70
2018-03-27T03:20:01.394Z,43.60
2018-03-27T03:22:28.658Z,46.93
2018-03-27T03:24:55.956Z,45.53
2018-03-27T03:27:23.228Z,46.07
2018-03-27T03:29:50.491Z,43.57
2018-03-27T03:32:17.794Z,53.90
2018-03-27T03:34:45.053Z,47.70
2018-03-27T03:37:12.337Z,48.53
2018-03-27T03:39:39.624Z,48.27
2018-03-27T03:42:06.876Z,45.47
2018-03-27T03:44:34.159Z,44.03
2018-03-27T03:47:01.454Z,45.20
2018-03-27T03:49:28.710Z,51.63
2018-03-27T03:51:55.996Z,46.90
2018-03-27T03:54:23.260Z,44.63
2018-03-27T03:56:50.530Z,52.30
2018-03-27T03:59:17.852Z,45.47
2018-03-27T04:01:45.099Z,48.20
2018-03-27T04:04:12.391Z,49.00
2018-03-27T04:06:39.706Z,45.40
2018-03-27T04:09:06.980Z,47.70
2018-03-27T04:11:34.267Z,48.70
2018-03-27T04:14:01.510Z,43.83
2018-03-27T04:16:28.768Z,44.57
2018-03-27T04:18:56.095Z,47.27
2018-03-27T04:21:23.350Z,43.60
2018-03-27T04:23:50.619Z,42.33
2018-03-27T04:26:17.911Z,43.37
2018-03-27T04:28:45.171Z,43.67
2018-03-27T04:31:12.425Z,43.73
2018-03-27T04:33:39.710Z,45.73
2018-03-27T04:36:06.969Z,45.30
2018-03-27T04:38:34.233Z,47.10
2018-03-27T04:41:01.495Z,46.73
2018-03-27T04:43:28.853Z,44.37
2018-03-27T04:45:56.101Z,44.83
2018-03-27T04:48:23.367Z,45.83
2018-03-27T04:50:50.617Z,45.03
2018-03-27T04:53:17.901Z,43.10
2018-03-27T04:55:45.167Z,47.57
2018-03-27T04:58:12.535Z,44.07
2018-03-27T05:00:39.833Z,47.13
2018-03-27T05:03:07.088Z,44.23
2018-03-27T05:05:34.383Z,44.10
2018-03-27T05:08:01.658Z,45.63
2018-03-27T05:10:28.917Z,48.90
2018-03-27T05:12:56.202Z,44.40
2018-03-27T05:15:23.500Z,44.07
2018-03-27T05:17:50.781Z,44.17
2018-03-27T05:20:18.048Z,44.00
2018-03-27T05:22:45.335Z,47.77
2018-03-27T05:25:12.593Z,48.30
2018-03-27T05:27:39.894Z,44.57
2018-03-27T05:30:07.396Z,47.57
2018-03-27T05:32:34.676Z,44.23
2018-03-27T05:35:01.975Z,43.87
2018-03-27T05:37:29.325Z,47.80
2018-03-27T05:39:56.614Z,49.87
2018-03-27T05:42:23.890Z,44.87
2018-03-27T05:44:51.154Z,45.87
2018-03-27T05:47:18.451Z,41.23
2018-03-27T05:49:45.814Z,45.67
2018-03-27T05:52:13.124Z,50.43
2018-03-27T05:54:40.427Z,48.03
2018-03-27T05:57:07.730Z,47.37
2018-03-27T05:59:35.000Z,44.83
2018-03-27T06:02:02.295Z,47.23
2018-03-27T06:04:29.590Z,47.27
2018-03-27T06:06:56.902Z,51.57
2018-03-27T06:09:24.175Z,51.70
2018-03-27T06:11:51.435Z,45.10
2018-03-27T06:14:18.735Z,49.10
2018-03-27T06:16:46.024Z,52.33
2018-03-27T06:19:13.544Z,53.70
2018-03-27T06:21:40.852Z,46.57
2018-03-27T06:24:08.150Z,48.73
2018-03-27T06:26:35.413Z,48.83
2018-03-27T06:29:02.698Z,46.63
2018-03-27T06:31:29.955Z,54.20
2018-03-27T06:33:57.243Z,50.87
2018-03-27T06:36:24.497Z,49.63
2018-03-27T06:38:51.826Z,48.77
2018-03-27T06:41:19.128Z,46.27
2018-03-27T06:43:46.550Z,48.00
2018-03-27T06:46:13.908Z,46.47
2018-03-27T06:48:41.157Z,51.20
2018-03-27T06:51:08.465Z,46.17
2018-03-27T06:53:35.728Z,46.10
2018-03-27T06:56:03.113Z,44.57
2018-03-27T06:58:30.380Z,48.70
2018-03-27T07:00:57.651Z,44.50
2018-03-27T07:03:24.962Z,48.93
2018-03-27T07:05:52.489Z,44.87
2018-03-27T07:08:19.849Z,47.57
2018-03-27T07:10:47.192Z,47.63
2018-03-27T07:13:14.483Z,43.77
2018-03-27T07:15:41.772Z,48.93
2018-03-27T07:18:09.089Z,51.37
2018-03-27T07:20:36.371Z,48.30
2018-03-27T07:23:03.631Z,47.20
2018-03-27T07:25:31.001Z,48.87
2018-03-27T07:27:58.298Z,45.73
2018-03-27T07:30:25.596Z,47.97
2018-03-27T07:32:52.902Z,50.60
2018-03-27T07:35:20.308Z,47.10
2018-03-27T07:37:47.599Z,44.90
2018-03-27T07:40:14.881Z,44.50
2018-03-27T07:42:42.160Z,42.90
2018-03-27T07:45:09.412Z,41.47
2018-03-27T07:47:36.909Z,45.60
2018-03-27T07:50:04.228Z,43.93
2018-03-27T07:52:31.501Z,47.87
2018-03-27T07:54:58.781Z,47.67
2018-03-27T07:57:26.074Z,44.50
2018-03-27T08:03:04.138Z,45.53
2018-03-27T08:05:38.322Z,43.73
2018-03-27T08:08:07.952Z,45.60
2018-03-27T08:12:35.795Z,42.70
2018-03-27T08:15:03.938Z,38.70
2018-03-27T08:17:32.076Z,43.50
2018-03-27T08:20:00.228Z,44.83
2018-03-27T08:22:32.233Z,43.93
2018-03-27T08:25:00.369Z,43.97
2018-03-27T08:27:29.188Z,44.93
2018-03-27T08:29:57.366Z,44.43
2018-03-27T08:32:25.588Z,41.67
2018-03-27T08:34:57.105Z,40.50
2018-03-27T08:37:25.242Z,40.30
2018-03-27T08:39:57.847Z,33.70
2018-03-27T08:42:26.035Z,37.10
2018-03-27T08:44:54.296Z,33.87
2018-03-27T08:47:26.306Z,38.53
2018-03-27T08:49:57.771Z,33.27
2018-03-27T08:52:26.014Z,32.23
2018-03-27T08:54:54.266Z,41.47
2018-03-27T08:57:22.451Z,30.27
2018-03-27T08:59:53.738Z,26.53
2018-03-27T09:02:22.769Z,26.60
2018-03-27T09:04:51.051Z,31.20
2018-03-27T09:07:19.197Z,23.97
2018-03-27T09:09:47.360Z,30.87
2018-03-27T09:12:17.478Z,29.37
2018-03-27T09:14:45.649Z,28.53
2018-03-27T09:17:15.769Z,24.57
2018-03-27T09:19:43.954Z,23.77
2018-03-27T09:22:17.284Z,30.07
2018-03-27T09:24:45.512Z,24.43
2018-03-27T09:27:14.620Z,21.97
2018-03-27T09:29:49.119Z,27.07
2018-03-27T09:32:17.354Z,21.53
2018-03-27T09:34:45.495Z,23.93
2018-03-27T09:37:13.640Z,22.07
2018-03-27T09:39:42.951Z,19.77
2018-03-27T09:42:11.147Z,24.13
2018-03-27T09:44:39.325Z,19.53
2018-03-27T09:47:07.454Z,20.60
2018-03-27T09:49:35.625Z,21.90
2018-03-27T09:52:03.788Z,18.80
2018-03-27T09:54:32.122Z,17.80
2018-03-27T09:57:00.284Z,16.73
2018-03-27T09:59:28.589Z,21.17
2018-03-27T10:01:56.900Z,17.17
2018-03-27T10:04:25.105Z,18.33
2018-03-27T10:06:53.263Z,19.33
2018-03-27T10:09:21.919Z,18.60
2018-03-27T10:11:50.112Z,19.30
2018-03-27T10:14:18.261Z,19.17
2018-03-27T10:16:46.420Z,15.33
2018-03-27T10:19:14.598Z,16.07
2018-03-27T10:21:42.750Z,18.97
2018-03-27T10:24:10.923Z,15.77
2018-03-27T10:26:39.064Z,17.70
2018-03-27T10:29:07.263Z,19.63
2018-03-27T10:31:35.735Z,16.33
2018-03-27T10:34:03.962Z,15.43
2018-03-27T10:36:32.186Z,15.20
2018-03-27T10:39:00.336Z,15.83
2018-03-27T10:41:28.798Z,17.83
2018-03-27T10:43:57.040Z,17.10
2018-03-27T10:46:25.173Z,17.13
2018-03-27T10:48:53.426Z,18.97
2018-03-27T10:51:21.666Z,17.23
2018-03-27T10:53:49.833Z,17.83
2018-03-27T10:56:18.094Z,16.50
2018-03-27T10:58:46.243Z,19.27
2018-03-27T11:01:14.394Z,18.20
2018-03-27T11:03:42.565Z,18.50
2018-03-27T11:06:10.811Z,16.93
2018-03-27T11:08:38.967Z,14.13
2018-03-27T11:11:07.146Z,20.40
2018-03-27T11:13:35.409Z,17.00
2018-03-27T11:16:03.709Z,17.97
2018-03-27T11:18:31.853Z,20.37
2018-03-27T11:21:00.016Z,17.10
2018-03-27T11:23:28.636Z,19.40
2018-03-27T11:25:56.860Z,17.63
2018-03-27T11:28:25.065Z,17.77
2018-03-27T11:30:53.203Z,17.23
2018-03-27T11:33:21.352Z,19.57
2018-03-27T11:35:49.600Z,19.73
2018-03-27T11:38:17.723Z,17.50
2018-03-27T11:40:46.435Z,22.27
2018-03-27T11:43:14.612Z,20.87
2018-03-27T11:45:42.992Z,20.80
2018-03-27T11:48:11.342Z,22.80
2018-03-27T11:50:39.536Z,19.27
2018-03-27T11:53:07.689Z,23.17
2018-03-27T11:55:36.056Z,20.93
2018-03-27T11:58:04.282Z,18.27
2018-03-27T12:00:32.430Z,22.27
2018-03-27T12:03:00.775Z,23.77
2018-03-27T12:05:28.953Z,27.00
2018-03-27T12:07:57.119Z,21.77
2018-03-27T12:10:25.409Z,22.03
2018-03-27T12:12:53.613Z,23.23
2018-03-27T12:15:21.738Z,23.53
2018-03-27T12:17:49.962Z,25.83
2018-03-27T12:20:18.185Z,22.57
2018-03-27T12:22:46.415Z,21.23
2018-03-27T12:25:14.599Z,23.97
2018-03-27T12:27:42.776Z,24.80
2018-03-27T12:30:11.020Z,24.07
2018-03-27T12:32:39.237Z,31.80
2018-03-27T12:35:07.409Z,24.33
2018-03-27T12:37:35.608Z,21.47
2018-03-27T12:40:03.796Z,22.67
2018-03-27T12:42:31.981Z,23.37
2018-03-27T12:45:00.166Z,24.57
2018-03-27T12:47:28.325Z,22.20
2018-03-27T12:49:56.465Z,20.53
2018-03-27T12:52:24.659Z,21.80
2018-03-27T12:54:52.829Z,23.57
2018-03-27T12:57:21.043Z,24.70
2018-03-27T12:59:49.332Z,24.13
2018-03-27T13:02:17.476Z,21.20
2018-03-27T13:04:45.614Z,21.70
2018-03-27T13:07:13.786Z,24.70
2018-03-27T13:09:41.934Z,21.47
2018-03-27T13:12:10.122Z,21.77
2018-03-27T13:14:38.267Z,23.07
2018-03-27T13:17:06.473Z,25.23
2018-03-27T13:19:34.647Z,22.37
2018-03-27T13:22:02.790Z,22.63
2018-03-27T13:24:30.957Z,21.37
2018-03-27T13:26:59.106Z,23.63
2018-03-27T13:29:27.274Z,23.13
2018-03-27T13:31:54.689Z,20.17
2018-03-27T13:34:21.953Z,24.13
2018-03-27T13:36:49.219Z,25.53
2018-03-27T13:39:19.511Z,23.17
2018-03-27T13:41:46.842Z,23.23
2018-03-27T13:44:14.107Z,22.37
2018-03-27T13:46:41.367Z,22.93
2018-03-27T13:49:08.674Z,33.27
2018-03-27T13:51:35.954Z,25.23
2018-03-27T13:54:03.772Z,28.17
2018-03-27T13:56:31.151Z,27.90
2018-03-27T13:58:58.444Z,27.03
2018-03-27T14:01:25.737Z,30.33
2018-03-27T14:03:53.034Z,32.00
2018-03-27T14:06:20.318Z,27.57
2018-03-27T14:08:47.593Z,24.87
2018-03-27T14:11:14.911Z,29.33
2018-03-27T14:13:42.191Z,27.97
2018-03-27T14:16:09.488Z,27.67
2018-03-27T14:18:36.764Z,28.23
2018-03-27T14:21:04.045Z,30.13
2018-03-27T14:23:31.334Z,28.97
2018-03-27T14:25:58.599Z,27.93
2018-03-27T14:28:25.919Z,32.80
2018-03-27T14:30:53.195Z,31.73
2018-03-27T14:33:20.474Z,29.07
2018-03-27T14:35:47.769Z,29.87
2018-03-27T14:38:15.114Z,29.57
2018-03-27T14:40:42.325Z,26.87
2018-03-27T14:43:09.621Z,30.37
2018-03-27T14:45:36.884Z,29.33
2018-03-27T14:48:04.200Z,32.70
2018-03-27T14:50:31.533Z,31.57
2018-03-27T14:52:58.792Z,31.83
2018-03-27T14:55:26.267Z,31.20
2018-03-27T14:57:53.524Z,35.37
2018-03-27T15:00:20.797Z,31.53
2018-03-27T15:02:48.107Z,31.60
2018-03-27T15:05:15.386Z,33.60
2018-03-27T15:07:42.632Z,33.17
2018-03-27T15:10:09.931Z,33.00
2018-03-27T15:12:37.196Z,36.73
2018-03-27T15:15:04.520Z,35.47
2018-03-27T15:38:37.179Z,23.73
2018-03-27T15:41:05.393Z,24.47
2018-03-27T15:43:33.545Z,26.63
2018-03-27T15:46:01.680Z,26.20
2018-03-27T15:48:29.847Z,29.93
2018-03-27T15:50:58.011Z,28.90
2018-03-27T15:53:26.167Z,30.43
2018-03-27T15:55:54.313Z,29.37
2018-03-27T15:58:22.459Z,27.33
2018-03-27T16:00:50.635Z,32.67
2018-03-27T16:03:18.791Z,32.70
2018-03-27T16:05:46.962Z,32.03
2018-03-27T16:08:15.105Z,34.80
2018-03-27T16:10:43.261Z,34.87
2018-03-27T16:13:11.408Z,30.73
2018-03-27T16:15:39.667Z,40.37
2018-03-27T16:18:07.816Z,36.00
2018-03-27T16:20:35.983Z,34.10
2018-03-27T16:23:04.141Z,32.20
2018-03-27T16:25:32.274Z,32.93
2018-03-27T16:28:00.405Z,30.10
2018-03-27T16:30:28.570Z,29.10
2018-03-27T16:32:56.728Z,33.47
2018-03-27T16:35:24.878Z,28.87
2018-03-27T16:37:53.062Z,28.33
2018-03-27T16:40:21.217Z,27.80
2018-03-27T16:42:49.406Z,28.17
2018-03-27T16:45:17.542Z,29.57
2018-03-27T16:47:45.692Z,23.03
2018-03-27T16:50:13.863Z,26.80
2018-03-27T16:52:42.005Z,26.33
2018-03-27T16:55:10.154Z,26.20
2018-03-27T16:57:38.308Z,26.87
2018-03-27T17:00:06.494Z,23.10
2018-03-27T17:02:35.578Z,22.60
2018-03-27T17:05:03.775Z,21.10
2018-03-27T17:07:31.949Z,19.17
2018-03-27T17:10:00.089Z,17.60
2018-03-27T17:12:28.233Z,15.53
2018-03-27T17:14:56.401Z,14.43
2018-03-27T17:17:24.533Z,14.07
2018-03-27T17:19:52.676Z,14.67
2018-03-27T17:22:20.830Z,15.37
2018-03-27T17:24:48.975Z,16.07
2018-03-27T17:27:17.113Z,12.67
2018-03-27T17:29:45.305Z,15.07
2018-03-27T17:32:13.444Z,12.40
2018-03-27T17:34:41.627Z,16.23
2018-03-27T17:37:09.788Z,13.53
2018-03-27T17:39:37.891Z,15.20
2018-03-27T17:42:06.044Z,12.70
2018-03-27T17:44:34.183Z,15.27
2018-03-27T17:47:02.324Z,15.03
2018-03-27T17:49:30.508Z,16.73
2018-03-27T17:51:58.654Z,14.87
2018-03-27T17:54:26.787Z,13.60
2018-03-27T17:56:54.968Z,16.33
2018-03-27T17:59:23.090Z,17.23
2018-03-27T18:01:51.254Z,25.27
2018-03-27T18:04:19.409Z,19.33
2018-03-27T18:06:47.556Z,19.53
2018-03-27T18:09:15.705Z,19.50
2018-03-27T18:11:43.869Z,16.40
2018-03-27T18:14:12.011Z,17.50
2018-03-27T18:16:40.162Z,17.33
2018-03-27T18:19:08.302Z,15.23
2018-03-27T18:21:36.872Z,15.23
2018-03-27T18:24:05.035Z,17.87
2018-03-27T18:26:33.188Z,18.40
2018-03-27T18:29:01.323Z,13.07
2018-03-27T18:31:29.565Z,17.03
2018-03-27T18:33:57.690Z,16.57
2018-03-27T18:36:25.838Z,17.27
2018-03-27T18:38:53.950Z,15.23
2018-03-27T18:41:22.096Z,18.77
2018-03-27T18:43:50.268Z,17.73
2018-03-27T18:46:18.426Z,18.60
2018-03-27T18:48:46.558Z,16.70
2018-03-27T18:51:14.696Z,18.87
2018-03-27T18:53:42.820Z,19.97
2018-03-27T18:56:10.965Z,20.93
2018-03-27T18:58:39.131Z,19.30
2018-03-27T19:01:07.284Z,21.07
2018-03-27T19:03:35.398Z,19.70
2018-03-27T19:06:07.174Z,21.43
2018-03-27T19:08:35.330Z,23.23
2018-03-27T19:11:03.488Z,21.50
2018-03-27T19:13:31.705Z,22.50
2018-03-27T19:15:59.953Z,24.27
2018-03-27T19:18:28.096Z,24.60
2018-03-27T19:20:56.277Z,21.07
2018-03-27T19:23:24.387Z,25.63
2018-03-27T19:25:52.567Z,25.70
2018-03-27T19:28:20.717Z,27.73
2018-03-27T19:30:48.917Z,24.10
2018-03-27T19:33:17.063Z,28.23
2018-03-27T19:35:45.190Z,26.87
2018-03-27T19:38:13.312Z,26.87
2018-03-27T19:40:41.748Z,28.40
2018-03-27T19:43:13.744Z,31.63
2018-03-27T19:45:42.240Z,32.33
2018-03-27T19:48:11.423Z,27.43
2018-03-27T19:50:41.416Z,27.30
2018-03-27T19:53:09.565Z,28.27
2018-03-27T19:55:37.700Z,29.27
2018-03-27T19:58:09.561Z,30.87
2018-03-27T20:00:37.706Z,32.20
2018-03-27T20:03:05.852Z,30.00
2018-03-27T20:05:33.995Z,27.17
2018-03-27T20:08:02.167Z,35.23
2018-03-27T20:10:30.306Z,33.17
2018-03-27T20:12:58.444Z,33.80
2018-03-27T20:15:26.739Z,35.13
2018-03-27T20:17:55.056Z,31.07
2018-03-27T20:20:23.314Z,29.97
2018-03-27T20:22:51.446Z,31.30
2018-03-27T20:25:19.591Z,33.90
2018-03-27T20:27:47.746Z,34.40
2018-03-27T20:30:19.951Z,34.73
2018-03-27T20:32:48.322Z,31.97
2018-03-27T20:35:18.106Z,32.40
2018-03-27T20:37:47.325Z,32.23
2018-03-27T20:40:16.487Z,30.47
2018-03-27T20:42:46.567Z,30.00
2018-03-27T20:45:15.241Z,31.30
2018-03-27T20:47:43.928Z,31.10
2018-03-27T20:50:12.222Z,29.47
2018-03-27T20:52:40.902Z,31.10
2018-03-27T20:55:10.785Z,31.30
2018-03-27T20:57:40.320Z,33.53
2018-03-27T21:00:11.695Z,30.90
2018-03-27T21:02:40.155Z,29.47
2018-03-27T21:05:08.332Z,36.67
2018-03-27T21:07:36.477Z,31.93
2018-03-27T21:10:04.630Z,32.60
2018-03-27T21:12:32.768Z,31.40
2018-03-27T21:15:02.880Z,31.13
2018-03-27T21:17:32.570Z,31.27
2018-03-27T21:20:03.054Z,30.57
2018-03-27T21:22:33.446Z,32.00
2018-03-27T21:25:05.722Z,30.70
2018-03-27T21:27:36.689Z,33.60
2018-03-27T21:30:07.111Z,36.57
2018-03-27T21:32:35.418Z,35.63
2018-03-27T21:35:03.579Z,32.77
2018-03-27T21:37:31.733Z,34.90
2018-03-27T21:39:59.913Z,34.37
2018-03-27T21:42:28.061Z,37.30
2018-03-27T21:44:56.219Z,34.47
2018-03-27T21:47:24.435Z,34.73
2018-03-27T21:49:52.574Z,33.37
2018-03-27T21:52:20.724Z,34.33
2018-03-27T21:54:48.844Z,30.43
2018-03-27T21:57:17.002Z,33.20
2018-03-27T21:59:45.162Z,34.40
2018-03-27T22:02:13.300Z,37.90
2018-03-27T22:04:41.445Z,33.60
2018-03-27T22:07:09.646Z,34.10
2018-03-27T22:09:37.943Z,30.73
2018-03-27T22:12:06.089Z,35.33
2018-03-27T22:14:34.241Z,33.60
2018-03-27T22:17:02.446Z,33.50
2018-03-27T22:19:30.610Z,34.23
2018-03-27T22:21:58.767Z,32.73
2018-03-27T22:24:26.952Z,31.80
2018-03-27T22:26:55.062Z,36.10
2018-03-27T22:29:23.300Z,33.87
2018-03-27T22:31:54.739Z,33.57
2018-03-27T22:34:22.911Z,32.63
2018-03-27T22:36:51.077Z,31.47
2018-03-27T22:39:19.225Z,36.40
2018-03-27T22:41:47.368Z,34.40
2018-03-27T22:44:15.494Z,31.27
2018-03-27T22:46:43.617Z,33.57
2018-03-27T22:49:11.772Z,35.03
2018-03-27T22:51:39.951Z,34.13
2018-03-27T22:54:08.117Z,33.03
2018-03-27T22:56:36.259Z,35.53
2018-03-27T22:59:04.404Z,35.00
2018-03-27T23:01:32.576Z,35.33
2018-03-27T23:04:00.734Z,32.40
2018-03-27T23:06:28.884Z,32.13
2018-03-27T23:08:57.038Z,32.93
2018-03-27T23:11:25.188Z,34.00
2018-03-27T23:13:53.345Z,34.93
2018-03-27T23:16:21.490Z,31.60
2018-03-27T23:18:49.701Z,35.57
2018-03-27T23:21:17.862Z,33.60
2018-03-27T23:23:46.005Z,37.33
2018-03-27T23:26:14.146Z,38.20
2018-03-27T23:28:42.298Z,33.30
2018-03-27T23:31:10.419Z,34.60
2018-03-27T23:33:38.585Z,37.93
2018-03-27T23:36:06.705Z,37.53
2018-03-27T23:38:34.864Z,39.70
2018-03-27T23:41:03.010Z,34.37
2018-03-27T23:43:31.163Z,37.83
2018-03-27T23:45:59.369Z,38.30
2018-03-27T23:48:27.482Z,41.70
2018-03-27T23:50:55.626Z,44.40
2018-03-27T23:53:23.813Z,41.33
2018-03-27T23:55:52.043Z,43.53
2018-03-27T23:58:20.198Z,41.23
